sensor_id;sensor_type;location;lat;lon;timestamp;P1;durP1;ratioP1;P2;durP2;ratioP2
1999;SDS011;1001;48.87406500;9.59633600;2023-04-03T00:01:18;4.33;;;3.83;;
1999;SDS011;1001;48.87406500;9.59633600;2023-04-03T00:03:44;6.53;;;3.17;;
1999;SDS011;1001;48.87406500;9.59633600;2023-04-03T00:06:11;4.40;;;4.00;;
1999;SDS011;1001;48.87406500;9.59633600;2023-04-03T00:08:40;6.30;;;3.47;;
1999;SDS011;1001;48.87406500;9.59633600;2023-04-03T00:11:06;6.90;;;3.70;;
1999;SDS011;1001;48.87406500;9.59633600;2023-04-03T00:13:34;3.83;;;3.43;;
1999;SDS011;1001;48.87406500;9.59633600;2023-04-03T00:16:00;3.97;;;3.50;;
1999;SDS011;1001;48.87406500;9.59633600;2023-04-03T00:18:28;4.17;;;3.77;;
1999;SDS011;1001;48.87406500;9.59633600;2023-04-03T00:20:55;5.70;;;4.70;;
1999;SDS011;1001;48.87406500;9.59633600;2023-04-03T00:23:21;6.63;;;3.30;;
1999;SDS011;1001;48.87406500;9.59633600;2023-04-03T00:25:50;5.70;;;4.20;;
1999;SDS011;1001;48.87406500;9.59633600;2023-04-03T00:28:16;9.10;;;3.80;;
1999;SDS011;1001;48.87406500;9.59633600;2023-04-03T00:30:43;5.43;;;4.40;;
1999;SDS011;1001;48.87406500;9.59633600;2023-04-03T00:33:10;3.50;;;3.20;;
1999;SDS011;1001;48.87406500;9.59633600;2023-04-03T00:35:38;4.97;;;4.23;;
1999;SDS011;1001;48.87406500;9.59633600;2023-04-03T00:38:04;4.60;;;3.93;;
1999;SDS011;1001;48.87406500;9.59633600;2023-04-03T00:40:33;5.07;;;4.57;;
1999;SDS011;1001;48.87406500;9.59633600;2023-04-03T00:43:05;4.30;;;3.53;;
1999;SDS011;1001;48.87406500;9.59633600;2023-04-03T00:45:38;5.43;;;4.10;;
1999;SDS011;1001;48.87406500;9.59633600;2023-04-03T00:48:08;6.03;;;4.70;;
1999;SDS011;1001;48.87406500;9.59633600;2023-04-03T00:50:40;5.83;;;4.37;;
1999;SDS011;1001;48.87406500;9.59633600;2023-04-03T00:53:09;5.23;;;3.70;;
1999;SDS011;1001;48.87406500;9.59633600;2023-04-03T00:55:38;4.90;;;3.57;;
1999;SDS011;1001;48.87406500;9.59633600;2023-04-03T00:58:07;5.17;;;3.83;;
1999;SDS011;1001;48.87406500;9.59633600;2023-04-03T01:00:35;5.87;;;4.80;;
1999;SDS011;1001;48.87406500;9.59633600;2023-04-03T01:03:04;8.57;;;4.33;;
1999;SDS011;1001;48.87406500;9.59633600;2023-04-03T01:05:31;4.20;;;3.67;;
1999;SDS011;1001;48.87406500;9.59633600;2023-04-03T01:07:58;5.77;;;4.23;;
1999;SDS011;1001;48.87406500;9.59633600;2023-04-03T01:10:25;4.40;;;3.77;;
1999;SDS011;1001;48.87406500;9.59633600;2023-04-03T01:12:52;5.20;;;3.77;;
1999;SDS011;1001;48.87406500;9.59633600;2023-04-03T01:15:21;7.30;;;4.10;;
1999;SDS011;1001;48.87406500;9.59633600;2023-04-03T01:17:49;6.70;;;4.03;;
1999;SDS011;1001;48.87406500;9.59633600;2023-04-03T01:20:41;8.30;;;3.70;;
1999;SDS011;1001;48.87406500;9.59633600;2023-04-03T01:23:29;4.10;;;3.70;;
1999;SDS011;1001;48.87406500;9.59633600;2023-04-03T01:26:05;7.10;;;3.83;;
1999;SDS011;1001;48.87406500;9.59633600;2023-04-03T01:28:32;4.40;;;3.80;;
1999;SDS011;1001;48.87406500;9.59633600;2023-04-03T01:31:06;4.27;;;3.70;;
1999;SDS011;1001;48.87406500;9.59633600;2023-04-03T01:33:41;4.73;;;3.50;;
1999;SDS011;1001;48.87406500;9.59633600;2023-04-03T01:36:08;3.57;;;3.27;;
1999;SDS011;1001;48.87406500;9.59633600;2023-04-03T01:38:39;4.80;;;3.00;;
1999;SDS011;1001;48.87406500;9.59633600;2023-04-03T01:41:05;4.07;;;3.67;;
1999;SDS011;1001;48.87406500;9.59633600;2023-04-03T01:43:32;4.00;;;3.10;;
1999;SDS011;1001;48.87406500;9.59633600;2023-04-03T01:45:58;5.47;;;3.60;;
1999;SDS011;1001;48.87406500;9.59633600;2023-04-03T01:48:25;7.33;;;3.40;;
1999;SDS011;1001;48.87406500;9.59633600;2023-04-03T01:50:53;10.63;;;4.27;;
1999;SDS011;1001;48.87406500;9.59633600;2023-04-03T01:53:20;4.10;;;3.40;;
1999;SDS011;1001;48.87406500;9.59633600;2023-04-03T01:55:47;3.33;;;2.87;;
1999;SDS011;1001;48.87406500;9.59633600;2023-04-03T01:58:14;4.00;;;3.07;;
1999;SDS011;1001;48.87406500;9.59633600;2023-04-03T02:00:41;4.20;;;3.90;;
1999;SDS011;1001;48.87406500;9.59633600;2023-04-03T02:03:08;3.83;;;3.10;;
1999;SDS011;1001;48.87406500;9.59633600;2023-04-03T02:05:35;5.43;;;3.20;;
1999;SDS011;1001;48.87406500;9.59633600;2023-04-03T02:08:03;5.43;;;3.80;;
1999;SDS011;1001;48.87406500;9.59633600;2023-04-03T02:10:29;5.03;;;2.80;;
1999;SDS011;1001;48.87406500;9.59633600;2023-04-03T02:12:56;3.80;;;3.20;;
1999;SDS011;1001;48.87406500;9.59633600;2023-04-03T02:15:22;3.63;;;3.33;;
1999;SDS011;1001;48.87406500;9.59633600;2023-04-03T02:17:49;3.43;;;3.13;;
1999;SDS011;1001;48.87406500;9.59633600;2023-04-03T02:20:17;3.00;;;2.77;;
1999;SDS011;1001;48.87406500;9.59633600;2023-04-03T02:22:43;4.53;;;3.63;;
1999;SDS011;1001;48.87406500;9.59633600;2023-04-03T02:25:11;3.57;;;3.20;;
1999;SDS011;1001;48.87406500;9.59633600;2023-04-03T02:27:38;5.40;;;2.90;;
1999;SDS011;1001;48.87406500;9.59633600;2023-04-03T02:30:05;3.37;;;2.97;;
1999;SDS011;1001;48.87406500;9.59633600;2023-04-03T02:32:34;6.80;;;3.30;;
1999;SDS011;1001;48.87406500;9.59633600;2023-04-03T02:35:01;6.03;;;3.30;;
1999;SDS011;1001;48.87406500;9.59633600;2023-04-03T02:37:27;3.70;;;3.40;;
1999;SDS011;1001;48.87406500;9.59633600;2023-04-03T02:39:55;4.83;;;3.60;;
1999;SDS011;1001;48.87406500;9.59633600;2023-04-03T02:42:23;3.83;;;2.80;;
1999;SDS011;1001;48.87406500;9.59633600;2023-04-03T02:44:49;3.60;;;2.90;;
1999;SDS011;1001;48.87406500;9.59633600;2023-04-03T02:47:16;4.97;;;3.40;;
1999;SDS011;1001;48.87406500;9.59633600;2023-04-03T02:49:42;3.90;;;3.17;;
1999;SDS011;1001;48.87406500;9.59633600;2023-04-03T02:52:10;3.37;;;2.80;;
1999;SDS011;1001;48.87406500;9.59633600;2023-04-03T02:54:37;3.20;;;2.90;;
1999;SDS011;1001;48.87406500;9.59633600;2023-04-03T02:57:04;6.80;;;3.40;;
1999;SDS011;1001;48.87406500;9.59633600;2023-04-03T02:59:34;3.40;;;3.10;;
1999;SDS011;1001;48.87406500;9.59633600;2023-04-03T03:02:01;5.30;;;3.43;;
1999;SDS011;1001;48.87406500;9.59633600;2023-04-03T03:04:27;4.80;;;3.00;;
1999;SDS011;1001;48.87406500;9.59633600;2023-04-03T03:06:54;3.90;;;3.20;;
1999;SDS011;1001;48.87406500;9.59633600;2023-04-03T03:09:21;4.60;;;3.20;;
1999;SDS011;1001;48.87406500;9.59633600;2023-04-03T03:11:47;4.27;;;2.70;;
1999;SDS011;1001;48.87406500;9.59633600;2023-04-03T03:14:14;3.60;;;2.77;;
1999;SDS011;1001;48.87406500;9.59633600;2023-04-03T03:16:42;4.00;;;3.30;;
1999;SDS011;1001;48.87406500;9.59633600;2023-04-03T03:19:08;4.17;;;2.80;;
1999;SDS011;1001;48.87406500;9.59633600;2023-04-03T03:21:35;3.63;;;3.17;;
1999;SDS011;1001;48.87406500;9.59633600;2023-04-03T03:24:02;4.17;;;3.10;;
1999;SDS011;1001;48.87406500;9.59633600;2023-04-03T03:26:29;2.73;;;2.33;;
1999;SDS011;1001;48.87406500;9.59633600;2023-04-03T03:28:55;4.93;;;3.40;;
1999;SDS011;1001;48.87406500;9.59633600;2023-04-03T03:31:22;4.93;;;3.07;;
1999;SDS011;1001;48.87406500;9.59633600;2023-04-03T03:33:50;4.50;;;2.60;;
1999;SDS011;1001;48.87406500;9.59633600;2023-04-03T03:36:16;3.20;;;2.80;;
1999;SDS011;1001;48.87406500;9.59633600;2023-04-03T03:38:43;6.43;;;3.50;;
1999;SDS011;1001;48.87406500;9.59633600;2023-04-03T03:41:09;5.00;;;2.70;;
1999;SDS011;1001;48.87406500;9.59633600;2023-04-03T03:43:36;5.27;;;3.50;;
1999;SDS011;1001;48.87406500;9.59633600;2023-04-03T03:46:02;3.17;;;2.87;;
1999;SDS011;1001;48.87406500;9.59633600;2023-04-03T03:48:29;3.00;;;2.70;;
1999;SDS011;1001;48.87406500;9.59633600;2023-04-03T03:50:57;4.17;;;3.17;;
1999;SDS011;1001;48.87406500;9.59633600;2023-04-03T03:53:24;3.60;;;3.07;;
1999;SDS011;1001;48.87406500;9.59633600;2023-04-03T03:55:50;3.00;;;2.60;;
1999;SDS011;1001;48.87406500;9.59633600;2023-04-03T03:58:17;3.37;;;3.00;;
1999;SDS011;1001;48.87406500;9.59633600;2023-04-03T04:00:43;5.80;;;3.13;;
1999;SDS011;1001;48.87406500;9.59633600;2023-04-03T04:03:10;4.40;;;3.17;;
1999;SDS011;1001;48.87406500;9.59633600;2023-04-03T04:05:36;4.63;;;2.87;;
1999;SDS011;1001;48.87406500;9.59633600;2023-04-03T04:08:05;5.73;;;2.80;;
1999;SDS011;1001;48.87406500;9.59633600;2023-04-03T04:10:31;3.37;;;2.87;;
1999;SDS011;1001;48.87406500;9.59633600;2023-04-03T04:12:58;3.43;;;2.90;;
1999;SDS011;1001;48.87406500;9.59633600;2023-04-03T04:15:25;2.87;;;2.50;;
1999;SDS011;1001;48.87406500;9.59633600;2023-04-03T04:17:51;3.27;;;2.37;;
1999;SDS011;1001;48.87406500;9.59633600;2023-04-03T04:20:18;2.93;;;2.60;;
1999;SDS011;1001;48.87406500;9.59633600;2023-04-03T04:22:45;5.30;;;3.00;;
1999;SDS011;1001;48.87406500;9.59633600;2023-04-03T04:25:13;3.80;;;2.80;;
1999;SDS011;1001;48.87406500;9.59633600;2023-04-03T04:27:39;3.93;;;2.97;;
1999;SDS011;1001;48.87406500;9.59633600;2023-04-03T04:30:06;6.33;;;2.70;;
1999;SDS011;1001;48.87406500;9.59633600;2023-04-03T04:32:34;3.33;;;2.77;;
1999;SDS011;1001;48.87406500;9.59633600;2023-04-03T04:35:00;3.50;;;2.63;;
1999;SDS011;1001;48.87406500;9.59633600;2023-04-03T04:37:27;3.40;;;3.10;;
1999;SDS011;1001;48.87406500;9.59633600;2023-04-03T04:39:53;2.90;;;2.57;;
1999;SDS011;1001;48.87406500;9.59633600;2023-04-03T04:42:21;3.63;;;2.27;;
1999;SDS011;1001;48.87406500;9.59633600;2023-04-03T04:44:48;3.50;;;2.90;;
1999;SDS011;1001;48.87406500;9.59633600;2023-04-03T04:47:15;3.73;;;2.87;;
1999;SDS011;1001;48.87406500;9.59633600;2023-04-03T04:49:41;4.20;;;2.90;;
1999;SDS011;1001;48.87406500;9.59633600;2023-04-03T04:52:08;3.97;;;3.23;;
1999;SDS011;1001;48.87406500;9.59633600;2023-04-03T04:54:35;4.83;;;3.23;;
1999;SDS011;1001;48.87406500;9.59633600;2023-04-03T04:57:01;3.40;;;2.70;;
1999;SDS011;1001;48.87406500;9.59633600;2023-04-03T04:59:29;6.87;;;3.53;;
1999;SDS011;1001;48.87406500;9.59633600;2023-04-03T05:01:56;4.83;;;3.10;;
1999;SDS011;1001;48.87406500;9.59633600;2023-04-03T05:04:22;4.87;;;3.10;;
1999;SDS011;1001;48.87406500;9.59633600;2023-04-03T05:06:49;4.00;;;3.00;;
1999;SDS011;1001;48.87406500;9.59633600;2023-04-03T05:09:16;3.87;;;3.30;;
1999;SDS011;1001;48.87406500;9.59633600;2023-04-03T05:11:43;4.10;;;3.43;;
1999;SDS011;1001;48.87406500;9.59633600;2023-04-03T05:14:09;3.30;;;3.00;;
1999;SDS011;1001;48.87406500;9.59633600;2023-04-03T05:16:37;4.90;;;3.50;;
1999;SDS011;1001;48.87406500;9.59633600;2023-04-03T05:19:04;3.67;;;3.27;;
1999;SDS011;1001;48.87406500;9.59633600;2023-04-03T05:21:31;3.50;;;3.20;;
1999;SDS011;1001;48.87406500;9.59633600;2023-04-03T05:23:58;3.47;;;3.17;;
1999;SDS011;1001;48.87406500;9.59633600;2023-04-03T05:26:27;3.87;;;3.50;;
1999;SDS011;1001;48.87406500;9.59633600;2023-04-03T05:28:54;3.63;;;2.87;;
1999;SDS011;1001;48.87406500;9.59633600;2023-04-03T05:31:20;3.43;;;2.90;;
1999;SDS011;1001;48.87406500;9.59633600;2023-04-03T05:33:48;3.80;;;3.40;;
1999;SDS011;1001;48.87406500;9.59633600;2023-04-03T05:36:15;3.33;;;2.57;;
1999;SDS011;1001;48.87406500;9.59633600;2023-04-03T05:38:42;3.50;;;3.20;;
1999;SDS011;1001;48.87406500;9.59633600;2023-04-03T05:41:09;4.63;;;2.90;;
1999;SDS011;1001;48.87406500;9.59633600;2023-04-03T05:43:35;3.17;;;2.87;;
1999;SDS011;1001;48.87406500;9.59633600;2023-04-03T05:46:03;4.27;;;3.00;;
1999;SDS011;1001;48.87406500;9.59633600;2023-04-03T05:48:33;3.87;;;3.33;;
1999;SDS011;1001;48.87406500;9.59633600;2023-04-03T05:51:01;3.40;;;3.00;;
1999;SDS011;1001;48.87406500;9.59633600;2023-04-03T05:53:28;5.60;;;3.53;;
1999;SDS011;1001;48.87406500;9.59633600;2023-04-03T05:55:57;3.23;;;2.93;;
1999;SDS011;1001;48.87406500;9.59633600;2023-04-03T05:58:24;5.93;;;3.33;;
1999;SDS011;1001;48.87406500;9.59633600;2023-04-03T06:00:50;3.63;;;2.90;;
1999;SDS011;1001;48.87406500;9.59633600;2023-04-03T06:03:17;4.20;;;3.03;;
1999;SDS011;1001;48.87406500;9.59633600;2023-04-03T06:05:43;4.77;;;3.30;;
1999;SDS011;1001;48.87406500;9.59633600;2023-04-03T06:08:12;3.77;;;3.37;;
1999;SDS011;1001;48.87406500;9.59633600;2023-04-03T06:10:39;4.10;;;3.30;;
1999;SDS011;1001;48.87406500;9.59633600;2023-04-03T06:13:06;6.87;;;2.93;;
1999;SDS011;1001;48.87406500;9.59633600;2023-04-03T06:15:33;3.53;;;2.90;;
1999;SDS011;1001;48.87406500;9.59633600;2023-04-03T06:18:00;4.50;;;3.57;;
1999;SDS011;1001;48.87406500;9.59633600;2023-04-03T06:20:26;3.60;;;3.30;;
1999;SDS011;1001;48.87406500;9.59633600;2023-04-03T06:22:53;5.50;;;3.40;;
1999;SDS011;1001;48.87406500;9.59633600;2023-04-03T06:25:21;4.47;;;3.57;;
1999;SDS011;1001;48.87406500;9.59633600;2023-04-03T06:27:47;5.63;;;3.40;;
1999;SDS011;1001;48.87406500;9.59633600;2023-04-03T06:30:14;5.60;;;4.20;;
1999;SDS011;1001;48.87406500;9.59633600;2023-04-03T06:32:41;4.37;;;2.70;;
1999;SDS011;1001;48.87406500;9.59633600;2023-04-03T06:35:08;3.63;;;2.70;;
1999;SDS011;1001;48.87406500;9.59633600;2023-04-03T06:37:35;4.90;;;2.90;;
1999;SDS011;1001;48.87406500;9.59633600;2023-04-03T06:40:01;4.97;;;3.00;;
1999;SDS011;1001;48.87406500;9.59633600;2023-04-03T06:42:30;4.77;;;3.30;;
1999;SDS011;1001;48.87406500;9.59633600;2023-04-03T06:44:57;4.47;;;3.03;;
1999;SDS011;1001;48.87406500;9.59633600;2023-04-03T06:47:23;4.33;;;3.37;;
1999;SDS011;1001;48.87406500;9.59633600;2023-04-03T06:49:50;5.70;;;2.90;;
1999;SDS011;1001;48.87406500;9.59633600;2023-04-03T06:52:17;4.40;;;3.53;;
1999;SDS011;1001;48.87406500;9.59633600;2023-04-03T06:54:43;4.80;;;3.40;;
1999;SDS011;1001;48.87406500;9.59633600;2023-04-03T06:57:10;4.23;;;3.20;;
1999;SDS011;1001;48.87406500;9.59633600;2023-04-03T06:59:38;3.60;;;3.30;;
1999;SDS011;1001;48.87406500;9.59633600;2023-04-03T07:02:05;4.00;;;3.37;;
1999;SDS011;1001;48.87406500;9.59633600;2023-04-03T07:04:32;4.63;;;3.10;;
1999;SDS011;1001;48.87406500;9.59633600;2023-04-03T07:06:58;5.07;;;3.53;;
1999;SDS011;1001;48.87406500;9.59633600;2023-04-03T07:09:25;3.73;;;3.30;;
1999;SDS011;1001;48.87406500;9.59633600;2023-04-03T07:11:52;3.53;;;2.83;;
1999;SDS011;1001;48.87406500;9.59633600;2023-04-03T07:14:18;7.40;;;3.47;;
1999;SDS011;1001;48.87406500;9.59633600;2023-04-03T07:16:47;5.50;;;4.13;;
1999;SDS011;1001;48.87406500;9.59633600;2023-04-03T07:19:14;4.43;;;3.00;;
1999;SDS011;1001;48.87406500;9.59633600;2023-04-03T07:21:41;4.43;;;3.03;;
1999;SDS011;1001;48.87406500;9.59633600;2023-04-03T07:24:08;6.13;;;3.27;;
1999;SDS011;1001;48.87406500;9.59633600;2023-04-03T07:26:35;4.40;;;3.03;;
1999;SDS011;1001;48.87406500;9.59633600;2023-04-03T07:29:01;3.57;;;3.00;;
1999;SDS011;1001;48.87406500;9.59633600;2023-04-03T07:31:28;4.73;;;3.40;;
1999;SDS011;1001;48.87406500;9.59633600;2023-04-03T07:33:56;3.80;;;3.10;;
1999;SDS011;1001;48.87406500;9.59633600;2023-04-03T07:36:23;6.47;;;2.87;;
1999;SDS011;1001;48.87406500;9.59633600;2023-04-03T07:38:49;3.97;;;3.30;;
1999;SDS011;1001;48.87406500;9.59633600;2023-04-03T07:41:17;4.50;;;3.43;;
1999;SDS011;1001;48.87406500;9.59633600;2023-04-03T07:43:47;5.37;;;3.30;;
1999;SDS011;1001;48.87406500;9.59633600;2023-04-03T07:46:15;4.63;;;2.80;;
1999;SDS011;1001;48.87406500;9.59633600;2023-04-03T07:48:42;5.30;;;2.90;;
1999;SDS011;1001;48.87406500;9.59633600;2023-04-03T07:51:11;4.70;;;2.63;;
1999;SDS011;1001;48.87406500;9.59633600;2023-04-03T07:53:38;3.13;;;2.70;;
1999;SDS011;1001;48.87406500;9.59633600;2023-04-03T07:56:05;5.03;;;3.40;;
1999;SDS011;1001;48.87406500;9.59633600;2023-04-03T07:58:32;5.10;;;2.40;;
1999;SDS011;1001;48.87406500;9.59633600;2023-04-03T08:00:59;3.83;;;3.30;;
1999;SDS011;1001;48.87406500;9.59633600;2023-04-03T08:03:25;7.60;;;3.70;;
1999;SDS011;1001;48.87406500;9.59633600;2023-04-03T08:05:52;4.03;;;3.20;;
1999;SDS011;1001;48.87406500;9.59633600;2023-04-03T08:08:21;6.70;;;3.20;;
1999;SDS011;1001;48.87406500;9.59633600;2023-04-03T08:10:49;5.23;;;3.50;;
1999;SDS011;1001;48.87406500;9.59633600;2023-04-03T08:13:17;5.50;;;3.43;;
1999;SDS011;1001;48.87406500;9.59633600;2023-04-03T08:15:44;4.63;;;3.03;;
1999;SDS011;1001;48.87406500;9.59633600;2023-04-03T08:18:10;4.03;;;2.80;;
1999;SDS011;1001;48.87406500;9.59633600;2023-04-03T08:20:37;3.37;;;2.63;;
1999;SDS011;1001;48.87406500;9.59633600;2023-04-03T08:23:05;3.20;;;3.00;;
1999;SDS011;1001;48.87406500;9.59633600;2023-04-03T08:25:33;5.63;;;3.33;;
1999;SDS011;1001;48.87406500;9.59633600;2023-04-03T08:27:59;5.67;;;2.93;;
1999;SDS011;1001;48.87406500;9.59633600;2023-04-03T08:30:27;3.67;;;3.37;;
1999;SDS011;1001;48.87406500;9.59633600;2023-04-03T08:32:53;6.47;;;3.33;;
1999;SDS011;1001;48.87406500;9.59633600;2023-04-03T08:35:20;3.10;;;2.80;;
1999;SDS011;1001;48.87406500;9.59633600;2023-04-03T08:37:47;5.10;;;2.90;;
1999;SDS011;1001;48.87406500;9.59633600;2023-04-03T08:40:15;4.03;;;2.63;;
1999;SDS011;1001;48.87406500;9.59633600;2023-04-03T08:42:47;5.23;;;2.90;;
1999;SDS011;1001;48.87406500;9.59633600;2023-04-03T08:45:21;4.90;;;2.80;;
1999;SDS011;1001;48.87406500;9.59633600;2023-04-03T08:47:55;5.40;;;3.30;;
1999;SDS011;1001;48.87406500;9.59633600;2023-04-03T08:50:28;4.20;;;2.90;;
1999;SDS011;1001;48.87406500;9.59633600;2023-04-03T08:52:59;2.93;;;2.63;;
1999;SDS011;1001;48.87406500;9.59633600;2023-04-03T08:55:31;3.37;;;2.67;;
1999;SDS011;1001;48.87406500;9.59633600;2023-04-03T08:58:02;3.37;;;2.73;;
1999;SDS011;1001;48.87406500;9.59633600;2023-04-03T09:00:32;4.13;;;3.20;;
1999;SDS011;1001;48.87406500;9.59633600;2023-04-03T09:03:10;8.03;;;3.13;;
1999;SDS011;1001;48.87406500;9.59633600;2023-04-03T09:05:39;6.97;;;4.83;;
1999;SDS011;1001;48.87406500;9.59633600;2023-04-03T09:08:14;5.07;;;3.00;;
1999;SDS011;1001;48.87406500;9.59633600;2023-04-03T09:10:47;5.70;;;3.00;;
1999;SDS011;1001;48.87406500;9.59633600;2023-04-03T09:13:20;2.93;;;2.63;;
1999;SDS011;1001;48.87406500;9.59633600;2023-04-03T09:15:54;4.87;;;2.40;;
1999;SDS011;1001;48.87406500;9.59633600;2023-04-03T09:18:23;3.27;;;2.60;;
1999;SDS011;1001;48.87406500;9.59633600;2023-04-03T09:20:57;3.23;;;2.90;;
1999;SDS011;1001;48.87406500;9.59633600;2023-04-03T09:23:32;5.60;;;2.50;;
1999;SDS011;1001;48.87406500;9.59633600;2023-04-03T09:26:08;4.80;;;2.50;;
1999;SDS011;1001;48.87406500;9.59633600;2023-04-03T09:28:41;5.60;;;2.73;;
1999;SDS011;1001;48.87406500;9.59633600;2023-04-03T09:31:14;5.53;;;2.80;;
1999;SDS011;1001;48.87406500;9.59633600;2023-04-03T09:33:45;4.00;;;3.60;;
1999;SDS011;1001;48.87406500;9.59633600;2023-04-03T09:36:12;3.10;;;2.20;;
1999;SDS011;1001;48.87406500;9.59633600;2023-04-03T09:38:39;2.70;;;2.20;;
1999;SDS011;1001;48.87406500;9.59633600;2023-04-03T09:41:06;3.07;;;1.93;;
1999;SDS011;1001;48.87406500;9.59633600;2023-04-03T09:43:39;4.60;;;2.20;;
1999;SDS011;1001;48.87406500;9.59633600;2023-04-03T09:46:28;3.10;;;2.50;;
1999;SDS011;1001;48.87406500;9.59633600;2023-04-03T09:49:01;3.87;;;2.23;;
1999;SDS011;1001;48.87406500;9.59633600;2023-04-03T09:51:30;3.30;;;2.30;;
1999;SDS011;1001;48.87406500;9.59633600;2023-04-03T09:53:57;2.93;;;1.93;;
1999;SDS011;1001;48.87406500;9.59633600;2023-04-03T09:56:25;2.33;;;1.87;;
1999;SDS011;1001;48.87406500;9.59633600;2023-04-03T09:59:06;2.87;;;1.73;;
1999;SDS011;1001;48.87406500;9.59633600;2023-04-03T10:01:56;3.57;;;2.07;;
1999;SDS011;1001;48.87406500;9.59633600;2023-04-03T10:04:27;3.90;;;2.40;;
1999;SDS011;1001;48.87406500;9.59633600;2023-04-03T10:07:05;2.30;;;1.60;;
1999;SDS011;1001;48.87406500;9.59633600;2023-04-03T10:09:54;1.67;;;1.40;;
1999;SDS011;1001;48.87406500;9.59633600;2023-04-03T10:12:22;1.90;;;1.47;;
1999;SDS011;1001;48.87406500;9.59633600;2023-04-03T10:14:55;5.10;;;1.80;;
1999;SDS011;1001;48.87406500;9.59633600;2023-04-03T10:17:23;2.13;;;1.40;;
1999;SDS011;1001;48.87406500;9.59633600;2023-04-03T10:20:02;7.73;;;1.60;;
1999;SDS011;1001;48.87406500;9.59633600;2023-04-03T10:22:36;2.10;;;1.37;;
1999;SDS011;1001;48.87406500;9.59633600;2023-04-03T10:25:15;6.80;;;1.83;;
1999;SDS011;1001;48.87406500;9.59633600;2023-04-03T10:27:49;4.57;;;2.30;;
1999;SDS011;1001;48.87406500;9.59633600;2023-04-03T10:30:29;2.40;;;1.73;;
1999;SDS011;1001;48.87406500;9.59633600;2023-04-03T10:33:06;3.07;;;1.73;;
1999;SDS011;1001;48.87406500;9.59633600;2023-04-03T10:35:44;3.00;;;1.70;;
1999;SDS011;1001;48.87406500;9.59633600;2023-04-03T10:38:19;2.97;;;1.60;;
1999;SDS011;1001;48.87406500;9.59633600;2023-04-03T10:40:59;1.60;;;1.50;;
1999;SDS011;1001;48.87406500;9.59633600;2023-04-03T10:43:30;2.77;;;1.73;;
1999;SDS011;1001;48.87406500;9.59633600;2023-04-03T10:46:04;1.80;;;1.50;;
1999;SDS011;1001;48.87406500;9.59633600;2023-04-03T10:48:40;2.23;;;2.03;;
1999;SDS011;1001;48.87406500;9.59633600;2023-04-03T10:51:18;2.13;;;1.87;;
1999;SDS011;1001;48.87406500;9.59633600;2023-04-03T10:53:53;3.83;;;1.70;;
1999;SDS011;1001;48.87406500;9.59633600;2023-04-03T10:56:27;1.73;;;1.60;;
1999;SDS011;1001;48.87406500;9.59633600;2023-04-03T10:58:58;2.17;;;1.53;;
1999;SDS011;1001;48.87406500;9.59633600;2023-04-03T11:01:35;1.80;;;1.33;;
1999;SDS011;1001;48.87406500;9.59633600;2023-04-03T11:04:05;3.50;;;1.90;;
1999;SDS011;1001;48.87406500;9.59633600;2023-04-03T11:06:34;2.27;;;1.60;;
1999;SDS011;1001;48.87406500;9.59633600;2023-04-03T11:09:05;1.93;;;1.67;;
1999;SDS011;1001;48.87406500;9.59633600;2023-04-03T11:11:38;1.47;;;1.37;;
1999;SDS011;1001;48.87406500;9.59633600;2023-04-03T11:14:09;3.00;;;2.17;;
1999;SDS011;1001;48.87406500;9.59633600;2023-04-03T11:16:43;5.60;;;2.17;;
1999;SDS011;1001;48.87406500;9.59633600;2023-04-03T11:19:15;3.50;;;1.63;;
1999;SDS011;1001;48.87406500;9.59633600;2023-04-03T11:21:50;3.27;;;1.60;;
1999;SDS011;1001;48.87406500;9.59633600;2023-04-03T11:24:22;4.80;;;2.60;;
1999;SDS011;1001;48.87406500;9.59633600;2023-04-03T11:26:51;2.43;;;1.70;;
1999;SDS011;1001;48.87406500;9.59633600;2023-04-03T11:29:22;5.27;;;2.53;;
1999;SDS011;1001;48.87406500;9.59633600;2023-04-03T11:32:01;1.90;;;1.70;;
1999;SDS011;1001;48.87406500;9.59633600;2023-04-03T11:34:36;5.43;;;2.00;;
1999;SDS011;1001;48.87406500;9.59633600;2023-04-03T11:37:11;3.17;;;2.00;;
1999;SDS011;1001;48.87406500;9.59633600;2023-04-03T11:39:46;2.63;;;1.70;;
1999;SDS011;1001;48.87406500;9.59633600;2023-04-03T11:42:20;2.20;;;1.57;;
1999;SDS011;1001;48.87406500;9.59633600;2023-04-03T11:47:47;2.80;;;1.97;;
1999;SDS011;1001;48.87406500;9.59633600;2023-04-03T11:50:30;2.80;;;1.97;;
1999;SDS011;1001;48.87406500;9.59633600;2023-04-03T11:56:00;1.90;;;1.70;;
1999;SDS011;1001;48.87406500;9.59633600;2023-04-03T11:58:29;2.00;;;1.67;;
1999;SDS011;1001;48.87406500;9.59633600;2023-04-03T12:01:01;2.50;;;1.80;;
1999;SDS011;1001;48.87406500;9.59633600;2023-04-03T12:09:53;3.80;;;1.73;;
1999;SDS011;1001;48.87406500;9.59633600;2023-04-03T12:12:33;3.10;;;2.03;;
1999;SDS011;1001;48.87406500;9.59633600;2023-04-03T12:18:31;2.43;;;1.77;;
1999;SDS011;1001;48.87406500;9.59633600;2023-04-03T12:21:06;3.30;;;1.63;;
1999;SDS011;1001;48.87406500;9.59633600;2023-04-03T12:23:33;2.27;;;1.77;;
1999;SDS011;1001;48.87406500;9.59633600;2023-04-03T12:26:05;2.53;;;2.00;;
1999;SDS011;1001;48.87406500;9.59633600;2023-04-03T12:28:47;2.00;;;1.73;;
1999;SDS011;1001;48.87406500;9.59633600;2023-04-03T12:31:17;2.93;;;1.87;;
1999;SDS011;1001;48.87406500;9.59633600;2023-04-03T12:33:52;4.70;;;1.67;;
1999;SDS011;1001;48.87406500;9.59633600;2023-04-03T12:36:35;4.00;;;2.03;;
1999;SDS011;1001;48.87406500;9.59633600;2023-04-03T12:39:13;1.90;;;1.40;;
1999;SDS011;1001;48.87406500;9.59633600;2023-04-03T12:41:53;3.80;;;2.20;;
1999;SDS011;1001;48.87406500;9.59633600;2023-04-03T12:44:35;2.70;;;1.60;;
1999;SDS011;1001;48.87406500;9.59633600;2023-04-03T12:47:19;4.00;;;1.60;;
1999;SDS011;1001;48.87406500;9.59633600;2023-04-03T12:49:52;1.90;;;1.70;;
1999;SDS011;1001;48.87406500;9.59633600;2023-04-03T12:52:22;1.70;;;1.53;;
1999;SDS011;1001;48.87406500;9.59633600;2023-04-03T12:54:58;2.40;;;1.53;;
1999;SDS011;1001;48.87406500;9.59633600;2023-04-03T12:57:30;2.70;;;2.07;;
1999;SDS011;1001;48.87406500;9.59633600;2023-04-03T12:59:57;3.70;;;1.93;;
1999;SDS011;1001;48.87406500;9.59633600;2023-04-03T13:02:25;1.60;;;1.50;;
1999;SDS011;1001;48.87406500;9.59633600;2023-04-03T13:04:54;2.57;;;2.37;;
1999;SDS011;1001;48.87406500;9.59633600;2023-04-03T13:07:25;2.53;;;2.10;;
1999;SDS011;1001;48.87406500;9.59633600;2023-04-03T13:10:01;1.70;;;1.60;;
1999;SDS011;1001;48.87406500;9.59633600;2023-04-03T13:12:31;5.53;;;2.20;;
1999;SDS011;1001;48.87406500;9.59633600;2023-04-03T13:14:59;2.03;;;1.60;;
1999;SDS011;1001;48.87406500;9.59633600;2023-04-03T13:17:29;7.07;;;1.70;;
1999;SDS011;1001;48.87406500;9.59633600;2023-04-03T13:19:57;2.63;;;2.17;;
1999;SDS011;1001;48.87406500;9.59633600;2023-04-03T13:22:36;3.00;;;1.80;;
1999;SDS011;1001;48.87406500;9.59633600;2023-04-03T13:25:09;2.50;;;1.50;;
1999;SDS011;1001;48.87406500;9.59633600;2023-04-03T13:27:40;2.50;;;1.83;;
1999;SDS011;1001;48.87406500;9.59633600;2023-04-03T13:30:17;4.60;;;1.90;;
1999;SDS011;1001;48.87406500;9.59633600;2023-04-03T13:32:47;2.80;;;1.80;;
1999;SDS011;1001;48.87406500;9.59633600;2023-04-03T13:35:25;4.40;;;2.07;;
1999;SDS011;1001;48.87406500;9.59633600;2023-04-03T13:37:54;3.70;;;2.23;;
1999;SDS011;1001;48.87406500;9.59633600;2023-04-03T13:40:21;2.60;;;2.40;;